createdAt,value
2023-11-23T00:15:29.866Z,99057.31
2023-11-23T00:34:20.289Z,99050.03
2023-11-23T00:36:47.510Z,99035.44
2023-11-23T01:08:33.858Z,98991.44
2023-11-23T01:11:02.719Z,98996.22
2023-11-23T01:13:30.726Z,98974.31
2023-11-23T01:58:14.648Z,98932.16
2023-11-23T02:00:44.161Z,98910.88
2023-11-23T02:08:48.961Z,98931.91
2023-11-23T02:11:17.104Z,98930.38
2023-11-23T02:13:45.146Z,98929.16
2023-11-23T02:16:14.196Z,98917.72
2023-11-23T02:18:41.610Z,98920.19
2023-11-23T02:21:28.591Z,98893.09
2023-11-23T02:23:55.575Z,98910.06
2023-11-23T02:26:22.737Z,98918.06
2023-11-23T02:28:49.838Z,98877.88
2023-11-23T02:31:16.846Z,98874.72
2023-11-23T02:33:43.925Z,98870.16
2023-11-23T02:36:11.147Z,98877.16
2023-11-23T02:38:38.176Z,98878.63
2023-11-23T02:41:06.147Z,98873.88
2023-11-23T02:43:33.642Z,98861.97
2023-11-23T02:46:00.658Z,98869.66
2023-11-23T02:48:30.564Z,98863.56
2023-11-23T02:51:08.839Z,98852.63
2023-11-23T02:53:44.858Z,98837.53
2023-11-23T02:56:12.341Z,98850.31
2023-11-23T02:58:40.610Z,98829.59
2023-11-23T03:01:34.740Z,98819.06
2023-11-23T03:47:21.773Z,98745.63
2023-11-23T03:50:17.678Z,98730.19
2023-11-23T04:10:39.225Z,98700.56
2023-11-23T04:13:06.467Z,98717.06
2023-11-23T04:15:33.548Z,98722.88
2023-11-23T04:18:00.817Z,98717.50
2023-11-23T04:20:29.647Z,98691.94
2023-11-23T04:22:58.014Z,98696.13
2023-11-23T04:25:25.266Z,98702.25
2023-11-23T04:27:52.334Z,98714.34
2023-11-23T04:30:19.565Z,98692.78
2023-11-23T04:32:46.944Z,98673.56
2023-11-23T04:35:14.562Z,98660.56
2023-11-23T04:37:41.862Z,98683.47
2023-11-23T04:40:10.113Z,98677.78
2023-11-23T04:42:37.424Z,98665.44
2023-11-23T04:45:05.192Z,98661.19
2023-11-23T04:47:32.468Z,98659.88
2023-11-23T04:49:59.816Z,98672.63
2023-11-23T04:52:27.026Z,98660.56
2023-11-23T04:54:54.219Z,98656.03
2023-11-23T04:57:21.569Z,98644.75
2023-11-23T04:59:48.947Z,98645.13
2023-11-23T05:02:16.200Z,98625.84
2023-11-23T05:04:43.346Z,98643.00
2023-11-23T05:07:10.482Z,98632.25
2023-11-23T05:09:37.547Z,98625.78
2023-11-23T05:12:05.271Z,98617.75
2023-11-23T05:14:32.501Z,98596.03
2023-11-23T05:16:59.735Z,98610.47
2023-11-23T05:19:36.059Z,98588.50
2023-11-23T05:22:09.604Z,98594.47
2023-11-23T05:24:36.833Z,98602.25
2023-11-23T05:27:04.463Z,98597.16
2023-11-23T05:29:34.801Z,98594.91
2023-11-23T05:32:02.095Z,98591.13
2023-11-23T05:34:29.401Z,98587.44
2023-11-23T05:36:56.900Z,98582.59
2023-11-23T05:39:24.505Z,98585.19
2023-11-23T05:41:54.291Z,98572.44
2023-11-23T05:44:24.115Z,98605.28
2023-11-23T05:46:53.330Z,98573.31
2023-11-23T05:49:22.819Z,98572.13
2023-11-23T05:51:50.583Z,98581.44
2023-11-23T05:57:39.554Z,98564.50
2023-11-23T06:00:07.995Z,98583.94
2023-11-23T06:02:35.414Z,98568.59
2023-11-23T06:05:02.854Z,98563.50
2023-11-23T06:07:31.483Z,98551.44
2023-11-23T06:10:02.447Z,98548.50
2023-11-23T06:12:32.791Z,98561.91
2023-11-23T06:15:00.414Z,98539.28
2023-11-23T06:17:27.708Z,98546.34
2023-11-23T06:19:54.756Z,98533.38
2023-11-23T06:22:22.021Z,98527.16
2023-11-23T06:24:49.165Z,98521.47
2023-11-23T06:27:16.682Z,98504.22
2023-11-23T06:29:43.873Z,98503.47
2023-11-23T06:32:13.992Z,98491.91
2023-11-23T06:34:41.314Z,98491.38
2023-11-23T06:37:08.573Z,98460.25
2023-11-23T06:39:38.856Z,98486.94
2023-11-23T06:42:06.238Z,98480.41
2023-11-23T06:44:33.426Z,98464.25
2023-11-23T06:47:01.980Z,98466.78
2023-11-23T06:49:29.296Z,98458.56
2023-11-23T06:51:56.507Z,98459.56
2023-11-23T06:54:26.324Z,98459.88
2023-11-23T06:56:53.560Z,98446.88
2023-11-23T06:59:20.821Z,98432.84
2023-11-23T07:01:48.449Z,98434.88
2023-11-23T07:04:15.680Z,98416.03
2023-11-23T07:06:43.005Z,98431.13
2023-11-23T07:09:11.809Z,98441.06
2023-11-23T07:11:40.142Z,98403.00
2023-11-23T07:14:07.809Z,98415.22
2023-11-23T07:16:35.480Z,98388.44
2023-11-23T07:19:02.650Z,98386.56
2023-11-23T07:21:30.014Z,98397.59
2023-11-23T07:23:57.792Z,98394.63
2023-11-23T07:26:25.510Z,98386.28
2023-11-23T07:28:52.878Z,98378.84
2023-11-23T07:31:20.266Z,98380.38
2023-11-23T07:33:47.514Z,98383.53
2023-11-23T07:36:15.271Z,98377.81
2023-11-23T07:38:44.667Z,98373.25
2023-11-23T07:41:12.680Z,98354.50
2023-11-23T07:43:39.835Z,98381.72
2023-11-23T07:46:07.460Z,98354.47
2023-11-23T07:48:34.720Z,98363.22
2023-11-23T07:51:02.549Z,98349.94
2023-11-23T07:53:32.053Z,98324.03
2023-11-23T07:55:59.504Z,98328.28
2023-11-23T07:58:27.088Z,98315.09
2023-11-23T08:00:58.527Z,98301.28
2023-11-23T08:03:28.158Z,98309.56
2023-11-23T08:05:56.427Z,98282.75
2023-11-23T08:08:23.664Z,98292.88
2023-11-23T08:10:51.396Z,98280.78
2023-11-23T08:13:21.590Z,98250.28
2023-11-23T08:15:48.750Z,98238.50
2023-11-23T08:18:19.448Z,98237.09
2023-11-23T08:20:46.688Z,98233.44
2023-11-23T08:23:14.828Z,98240.00
2023-11-23T08:25:42.416Z,98234.81
2023-11-23T08:28:09.589Z,98223.28
2023-11-23T08:30:36.814Z,98202.34
2023-11-23T08:33:04.047Z,98203.28
2023-11-23T08:35:31.676Z,98193.16
2023-11-23T08:37:59.063Z,98169.78
2023-11-23T08:40:26.265Z,98170.06
2023-11-23T08:42:54.693Z,98164.59
2023-11-23T08:45:21.912Z,98142.66
2023-11-23T08:47:49.131Z,98157.59
2023-11-23T08:50:16.790Z,98130.94
2023-11-23T08:52:43.956Z,98127.59
2023-11-23T08:55:11.093Z,98130.09
2023-11-23T08:57:38.887Z,98096.97
2023-11-23T09:00:12.977Z,98105.91
2023-11-23T09:02:40.432Z,98090.94
2023-11-23T09:05:11.651Z,98099.25
2023-11-23T09:07:40.485Z,98090.22
2023-11-23T09:10:08.735Z,98102.06
2023-11-23T09:12:36.188Z,98076.59
2023-11-23T09:15:06.230Z,98077.19
2023-11-23T09:17:34.776Z,98063.00
2023-11-23T09:20:02.040Z,98067.22
2023-11-23T09:22:33.221Z,98052.66
2023-11-23T09:25:00.413Z,98038.16
2023-11-23T09:27:27.823Z,98029.13
2023-11-23T09:29:56.191Z,98025.47
2023-11-23T09:32:23.660Z,98028.16
2023-11-23T09:34:51.998Z,98018.91
2023-11-23T09:37:19.073Z,98008.50
2023-11-23T09:39:48.416Z,98000.06
2023-11-23T09:42:18.034Z,98003.38
2023-11-23T09:44:46.714Z,98003.59
2023-11-23T09:47:18.267Z,97947.63
2023-11-23T09:49:45.983Z,97982.59
2023-11-23T09:52:13.291Z,97944.75
2023-11-23T09:54:40.403Z,97949.94
2023-11-23T09:57:07.563Z,97953.03
2023-11-23T09:59:34.845Z,97938.81
2023-11-23T10:02:06.389Z,97919.97
2023-11-23T10:04:34.106Z,97911.22
2023-11-23T10:07:03.201Z,97913.44
2023-11-23T10:18:38.085Z,97882.66
2023-11-23T10:42:21.009Z,97782.72
2023-11-23T11:25:03.390Z,97691.09
2023-11-23T11:43:35.440Z,97622.22
2023-11-23T11:46:05.516Z,97614.44
2023-11-23T11:48:37.029Z,97604.16
2023-11-23T11:51:06.708Z,97605.38
2023-11-23T11:53:36.746Z,97576.38
2023-11-23T11:56:05.119Z,97563.47
2023-11-23T11:58:32.295Z,97555.34
2023-11-23T12:01:01.190Z,97541.81
2023-11-23T12:03:28.581Z,97522.31
2023-11-23T12:05:56.205Z,97540.31
2023-11-23T12:08:23.435Z,97541.63
2023-11-23T12:10:50.674Z,97526.38
2023-11-23T12:13:24.710Z,97527.31
2023-11-23T12:15:57.574Z,97505.81
2023-11-23T12:18:40.832Z,97513.09
2023-11-23T12:21:15.043Z,97484.19
2023-11-23T12:23:46.445Z,97487.13
2023-11-23T12:26:17.330Z,97487.50
2023-11-23T12:28:48.379Z,97477.66
2023-11-23T12:31:18.226Z,97451.69
2023-11-23T12:33:45.559Z,97451.25
2023-11-23T12:36:17.129Z,97441.91
2023-11-23T12:38:45.729Z,97428.09
2023-11-23T12:41:13.821Z,97411.09
2023-11-23T12:43:40.980Z,97398.78
2023-11-23T12:46:08.454Z,97401.59
2023-11-23T12:48:35.843Z,97394.97
2023-11-23T12:51:03.297Z,97381.50
2023-11-23T12:53:31.158Z,97372.72
2023-11-23T12:55:58.509Z,97371.34
2023-11-23T12:58:44.658Z,97370.44
2023-11-23T13:01:12.099Z,97369.97
2023-11-23T13:03:39.910Z,97350.13
2023-11-23T13:06:07.838Z,97360.38
2023-11-23T13:08:35.752Z,97345.75
2023-11-23T13:11:03.007Z,97341.97
2023-11-23T13:13:30.318Z,97340.56
2023-11-23T13:15:59.581Z,97328.75
2023-11-23T13:18:38.236Z,97322.94
2023-11-23T13:21:14.408Z,97315.88
2023-11-23T13:23:41.812Z,97308.78
2023-11-23T13:26:09.128Z,97296.53
2023-11-23T13:28:36.929Z,97291.78
2023-11-23T13:31:06.042Z,97274.69
2023-11-23T13:33:33.348Z,97268.69
2023-11-23T13:36:00.720Z,97269.50
2023-11-23T13:38:30.579Z,97238.94
2023-11-23T13:41:00.330Z,97242.38
2023-11-23T13:43:27.564Z,97230.06
2023-11-23T13:45:55.135Z,97224.53
2023-11-23T13:48:22.945Z,97217.34
2023-11-23T13:50:51.450Z,97208.13
2023-11-23T13:53:18.716Z,97201.66
2023-11-23T13:55:46.582Z,97200.13
2023-11-23T13:58:14.177Z,97158.56
2023-11-23T14:00:42.035Z,97159.88
2023-11-23T14:03:10.406Z,97169.66
2023-11-23T14:05:37.803Z,97159.03
2023-11-23T14:08:06.194Z,97153.03
2023-11-23T14:10:33.665Z,97148.31
2023-11-23T14:13:01.463Z,97144.19
2023-11-23T14:15:28.872Z,97139.00
2023-11-23T14:17:56.122Z,97123.75
2023-11-23T14:20:25.277Z,97116.47
2023-11-23T14:22:52.811Z,97108.91
2023-11-23T14:25:22.183Z,97120.09
2023-11-23T14:27:50.065Z,97118.69
2023-11-23T14:30:21.425Z,97126.13
2023-11-23T14:32:49.980Z,97111.47
2023-11-23T14:35:17.571Z,97119.03
2023-11-23T14:37:46.115Z,97101.22
2023-11-23T14:40:16.671Z,97107.69
2023-11-23T14:42:55.988Z,97077.13
2023-11-23T14:45:29.184Z,97069.13
2023-11-23T14:47:58.710Z,97056.97
2023-11-23T14:50:30.201Z,97056.94
2023-11-23T14:52:59.964Z,97067.81
2023-11-23T14:55:27.660Z,97050.25
2023-11-23T14:58:01.385Z,97021.69
2023-11-23T15:00:31.391Z,97031.72
2023-11-23T15:02:59.222Z,97017.31
2023-11-23T15:05:26.494Z,97032.91
2023-11-23T15:08:05.341Z,97020.59
2023-11-23T15:10:45.734Z,97017.09
2023-11-23T15:13:23.011Z,97029.56
2023-11-23T15:15:54.060Z,97029.06
2023-11-23T15:18:24.788Z,97006.94
2023-11-23T15:20:52.370Z,97003.25
2023-11-23T15:23:22.126Z,96976.09
2023-11-23T15:26:02.459Z,97008.31
2023-11-23T15:28:34.999Z,96986.47
2023-11-23T15:31:09.140Z,96998.44
2023-11-23T15:33:37.868Z,96998.31
2023-11-23T15:36:07.290Z,96971.44
2023-11-23T15:38:35.895Z,96945.25
2023-11-23T15:41:04.553Z,96936.75
2023-11-23T15:43:31.827Z,96941.44
2023-11-23T15:45:58.892Z,96928.47
2023-11-23T15:48:35.042Z,96913.84
2023-11-23T15:51:16.274Z,96913.84
2023-11-23T15:53:48.756Z,96878.72
2023-11-23T15:56:20.748Z,96863.91
2023-11-23T15:58:48.751Z,96867.25
2023-11-23T16:01:23.382Z,96877.78
2023-11-23T16:03:54.681Z,96860.97
2023-11-23T16:06:22.317Z,96828.69
2023-11-23T16:08:56.376Z,96828.69
2023-11-23T16:11:28.146Z,96823.19
2023-11-23T16:13:55.474Z,96834.19
2023-11-23T16:16:22.854Z,96809.69
2023-11-23T16:18:50.129Z,96801.34
2023-11-23T16:21:21.349Z,96798.94
2023-11-23T16:23:48.805Z,96799.81
2023-11-23T16:26:16.244Z,96781.06
2023-11-23T16:28:43.584Z,96756.88
2023-11-23T16:31:11.107Z,96775.34
2023-11-23T16:33:40.659Z,96774.41
2023-11-23T16:36:26.008Z,96775.03
2023-11-23T16:39:10.199Z,96771.38
2023-11-23T16:41:38.571Z,96772.88
2023-11-23T16:44:08.432Z,96744.56
2023-11-23T16:46:36.158Z,96741.44
2023-11-23T16:49:04.415Z,96744.06
2023-11-23T16:51:31.896Z,96736.28
2023-11-23T16:54:02.209Z,96730.66
2023-11-23T16:56:43.334Z,96709.72
2023-11-23T16:59:20.079Z,96720.94
2023-11-23T17:01:48.770Z,96720.56
2023-11-23T17:04:25.455Z,96708.94
2023-11-23T17:06:57.110Z,96687.59
2023-11-23T17:09:57.258Z,96692.00
2023-11-23T17:12:28.971Z,96662.03
2023-11-23T17:14:56.497Z,96657.25
2023-11-23T17:17:26.816Z,96645.47
2023-11-23T17:19:54.291Z,96645.78
2023-11-23T17:22:42.844Z,96623.47
2023-11-23T17:25:13.910Z,96628.56
2023-11-23T17:27:50.696Z,96604.88
2023-11-23T17:30:22.507Z,96578.25
2023-11-23T17:32:53.754Z,96592.59
2023-11-23T17:35:21.996Z,96592.06
2023-11-23T17:37:49.637Z,96576.22
2023-11-23T17:40:17.427Z,96578.41
2023-11-23T17:42:50.745Z,96571.13
2023-11-23T17:45:20.565Z,96548.72
2023-11-23T17:47:51.096Z,96535.97
2023-11-23T17:50:18.498Z,96539.28
2023-11-23T17:52:46.028Z,96533.28
2023-11-23T17:55:16.249Z,96516.88
2023-11-23T17:57:43.765Z,96519.72
2023-11-23T18:00:14.159Z,96515.19
2023-11-23T18:02:44.420Z,96499.63
2023-11-23T18:05:15.417Z,96500.03
2023-11-23T18:07:43.189Z,96491.16
2023-11-23T18:10:15.926Z,96484.31
2023-11-23T18:12:51.508Z,96486.50
2023-11-23T18:15:24.590Z,96473.78
2023-11-23T18:17:52.162Z,96469.28
2023-11-23T18:20:26.993Z,96448.91
2023-11-23T18:23:04.677Z,96454.19
2023-11-23T18:25:38.968Z,96423.03
2023-11-23T18:28:07.989Z,96434.25
2023-11-23T18:30:40.756Z,96410.88
2023-11-23T18:33:08.713Z,96410.44
2023-11-23T18:35:37.083Z,96406.78
2023-11-23T18:38:11.297Z,96396.25
2023-11-23T18:40:50.381Z,96407.97
2023-11-23T18:43:25.059Z,96377.09
2023-11-23T18:45:58.789Z,96377.91
2023-11-23T18:48:30.635Z,96385.81
2023-11-23T18:51:07.428Z,96360.19
2023-11-23T18:53:37.676Z,96358.66
2023-11-23T18:56:09.181Z,96369.28
2023-11-23T18:58:37.632Z,96334.72
2023-11-23T19:01:44.252Z,96336.88
2023-11-23T19:04:34.310Z,96336.34
2023-11-23T19:07:14.605Z,96355.63
2023-11-23T19:09:47.569Z,96341.66
2023-11-23T19:15:16.657Z,96301.88
2023-11-23T19:17:49.702Z,96301.25
2023-11-23T19:20:17.648Z,96306.25
2023-11-23T19:22:45.836Z,96296.63
2023-11-23T19:25:15.102Z,96305.38
2023-11-23T19:27:47.479Z,96285.25
2023-11-23T19:30:17.826Z,96287.09
2023-11-23T19:32:49.497Z,96276.41
2023-11-23T19:35:19.722Z,96267.94
2023-11-23T19:37:49.700Z,96268.63
2023-11-23T19:40:17.783Z,96269.72
2023-11-23T19:42:53.291Z,96257.25
2023-11-23T19:45:27.068Z,96236.69
2023-11-23T19:47:58.102Z,96236.25
2023-11-23T19:50:40.260Z,96249.19
2023-11-23T19:53:26.786Z,96237.72
2023-11-23T19:55:55.166Z,96233.34
2023-11-23T19:58:22.333Z,96219.44
2023-11-23T20:01:03.330Z,96226.13
2023-11-23T20:03:43.373Z,96212.75
2023-11-23T20:09:11.629Z,96204.25
2023-11-23T20:11:40.072Z,96200.97
2023-11-23T20:14:08.224Z,96178.56
2023-11-23T20:16:35.796Z,96173.09
2023-11-23T20:19:06.500Z,96177.16
2023-11-23T20:21:34.669Z,96167.56
2023-11-23T20:24:04.545Z,96173.03
2023-11-23T20:26:33.160Z,96130.38
2023-11-23T20:29:09.211Z,96126.97
2023-11-23T20:31:38.744Z,96138.75
2023-11-23T20:34:06.323Z,96135.34
2023-11-23T20:36:33.862Z,96123.50
2023-11-23T20:39:10.181Z,96100.63
2023-11-23T20:42:02.340Z,96114.88
2023-11-23T20:44:33.773Z,96097.75
2023-11-23T20:47:05.198Z,96096.16
2023-11-23T20:49:34.396Z,96067.88
2023-11-23T20:52:04.869Z,96087.84
2023-11-23T20:54:34.518Z,96073.97
2023-11-23T20:57:02.581Z,96078.06
2023-11-23T20:59:30.411Z,96059.19
2023-11-23T21:02:04.382Z,96045.00
2023-11-23T21:05:07.586Z,96045.53
2023-11-23T21:08:03.937Z,96036.69
2023-11-23T21:10:49.547Z,96029.41
2023-11-23T21:13:40.301Z,96050.41
2023-11-23T21:16:10.138Z,96034.31
